createdAt,value
2019-05-21T00:07:02.698Z,18.80
2019-05-21T00:16:44.404Z,18.50
2019-05-21T00:19:29.795Z,18.50
2019-05-21T00:25:05.311Z,18.60
2019-05-21T00:27:48.274Z,18.60
2019-05-21T00:34:43.911Z,18.30
2019-05-21T00:47:59.710Z,18.40
2019-05-21T00:51:40.914Z,18.60
2019-05-21T00:53:37.662Z,18.60
2019-05-21T00:59:23.429Z,18.60
2019-05-21T01:05:26.240Z,18.50
2019-05-21T01:08:21.339Z,18.60
2019-05-21T01:21:15.605Z,19.10
2019-05-21T01:23:45.401Z,19.20
2019-05-21T01:26:35.509Z,19.10
2019-05-21T01:29:52.425Z,19.10
2019-05-21T01:33:08.822Z,18.90
2019-05-21T01:35:55.528Z,18.70
2019-05-21T01:38:41.717Z,18.60
2019-05-21T01:41:31.236Z,18.60
2019-05-21T01:44:17.694Z,18.60
2019-05-21T01:50:33.076Z,18.60
2019-05-21T01:53:30.249Z,18.50
2019-05-21T01:57:02.762Z,18.60
2019-05-21T01:59:13.697Z,18.60
2019-05-21T02:02:06.242Z,18.60
2019-05-21T02:04:42.411Z,18.60
2019-05-21T02:07:24.997Z,18.70
2019-05-21T02:10:17.960Z,18.70
2019-05-21T02:12:59.797Z,18.70
2019-05-21T02:18:38.256Z,18.70
2019-05-21T02:21:16.476Z,18.60
2019-05-21T02:23:50.174Z,18.60
2019-05-21T02:26:22.648Z,18.60
2019-05-21T02:28:56.590Z,18.40
2019-05-21T02:31:29.744Z,18.30
2019-05-21T02:34:03.652Z,18.10
2019-05-21T02:36:41.802Z,18.10
2019-05-21T02:39:18.973Z,18.10
2019-05-21T02:41:59.306Z,18.10
2019-05-21T02:44:32.703Z,18.10
2019-05-21T02:47:12.078Z,18.10
2019-05-21T02:49:46.620Z,18.00
2019-05-21T02:52:19.144Z,18.00
2019-05-21T02:54:57.708Z,17.90
2019-05-21T02:57:44.415Z,17.80
2019-05-21T03:04:00.080Z,17.80
2019-05-21T03:06:52.301Z,17.70
2019-05-21T03:09:26.325Z,17.50
2019-05-21T03:12:09.636Z,17.50
2019-05-21T03:14:42.796Z,17.40
2019-05-21T03:17:48.493Z,17.40
2019-05-21T03:20:29.235Z,17.40
2019-05-21T03:23:38.800Z,17.30
2019-05-21T03:25:59.350Z,17.20
2019-05-21T03:28:39.740Z,17.20
2019-05-21T03:31:18.439Z,17.00
2019-05-21T03:33:55.644Z,16.90
2019-05-21T03:36:40.230Z,16.90
2019-05-21T03:39:13.093Z,16.80
2019-05-21T03:41:49.629Z,16.80
2019-05-21T03:44:29.571Z,16.80
2019-05-21T03:47:02.698Z,16.70
2019-05-21T03:53:20.646Z,16.40
2019-05-21T03:59:03.602Z,16.20
2019-05-21T04:01:50.884Z,16.20
2019-05-21T04:05:11.429Z,16.20
2019-05-21T04:16:14.432Z,16.20
2019-05-21T04:17:29.046Z,16.20
2019-05-21T04:19:53.062Z,16.20
2019-05-21T04:22:35.977Z,16.20
2019-05-21T04:25:23.377Z,16.10
2019-05-21T04:28:08.668Z,16.10
2019-05-21T04:30:37.889Z,16.00
2019-05-21T04:33:19.393Z,15.90
2019-05-21T04:36:06.974Z,15.80
2019-05-21T04:38:35.205Z,15.80
2019-05-21T04:41:13.495Z,15.60
2019-05-21T04:43:55.270Z,15.50
2019-05-21T04:46:52.019Z,15.40
2019-05-21T04:56:42.869Z,15.20
2019-05-21T04:58:50.355Z,14.80
2019-05-21T05:04:27.790Z,15.10
2019-05-21T05:10:13.425Z,15.00
2019-05-21T05:12:54.559Z,15.00
2019-05-21T05:15:45.002Z,15.00
2019-05-21T05:21:35.833Z,14.90
2019-05-21T05:36:27.375Z,14.80
2019-05-21T05:39:19.208Z,14.70
2019-05-21T05:42:21.059Z,14.60
2019-05-21T05:45:04.810Z,14.50
2019-05-21T05:47:40.411Z,14.40
2019-05-21T05:51:00.220Z,14.20
2019-05-21T05:53:11.042Z,14.00
2019-05-21T05:55:46.846Z,13.90
2019-05-21T05:58:19.792Z,13.80
2019-05-21T06:00:58.112Z,13.70
2019-05-21T06:03:33.271Z,13.60
2019-05-21T06:06:09.644Z,13.50
2019-05-21T06:08:43.564Z,13.40
2019-05-21T06:14:17.161Z,13.40
2019-05-21T06:16:49.832Z,13.50
2019-05-21T06:19:34.562Z,13.50
2019-05-21T06:22:17.730Z,13.60
2019-05-21T06:24:50.057Z,13.70
2019-05-21T06:27:25.191Z,13.80
2019-05-21T06:33:53.958Z,13.70
2019-05-21T06:36:29.737Z,14.10
2019-05-21T06:39:06.181Z,14.10
2019-05-21T06:41:41.257Z,14.20
2019-05-21T06:44:16.479Z,14.20
2019-05-21T06:46:50.011Z,14.30
2019-05-21T06:49:27.134Z,14.30
2019-05-21T06:52:05.237Z,14.40
2019-05-21T06:54:45.933Z,14.40
2019-05-21T06:57:22.910Z,14.50
2019-05-21T07:00:10.774Z,14.50
2019-05-21T07:03:33.194Z,14.60
2019-05-21T07:06:14.090Z,14.60
2019-05-21T07:08:51.524Z,14.70
2019-05-21T07:11:32.930Z,14.70
2019-05-21T07:14:19.184Z,14.70
2019-05-21T07:17:00.078Z,14.70
2019-05-21T07:19:43.172Z,14.70
2019-05-21T07:22:22.835Z,14.70
2019-05-21T07:25:13.812Z,14.70
2019-05-21T07:27:52.317Z,14.70
2019-05-21T07:30:46.895Z,14.70
2019-05-21T07:36:49.295Z,14.70
2019-05-21T07:39:21.568Z,14.70
2019-05-21T07:41:59.471Z,14.70
2019-05-21T07:44:53.865Z,14.70
2019-05-21T07:50:46.235Z,14.60
2019-05-21T07:53:57.139Z,14.50
2019-05-21T07:56:40.103Z,14.50
2019-05-21T07:59:27.056Z,14.50
2019-05-21T08:05:21.528Z,14.40
2019-05-21T08:08:10.896Z,14.50
2019-05-21T08:11:20.765Z,14.50
2019-05-21T08:14:01.335Z,14.40
2019-05-21T08:16:53.962Z,14.40
2019-05-21T08:20:09.118Z,14.30
2019-05-21T08:22:44.793Z,14.20
2019-05-21T08:25:30.546Z,14.20
2019-05-21T08:28:22.509Z,14.10
2019-05-21T08:37:33.267Z,14.00
2019-05-21T08:43:42.944Z,14.00
2019-05-21T08:46:24.480Z,14.00
2019-05-21T08:49:09.548Z,14.00
2019-05-21T08:53:15.930Z,13.90
2019-05-21T09:01:11.530Z,13.70
2019-05-21T09:04:07.083Z,13.70
2019-05-21T09:06:55.626Z,13.70
2019-05-21T09:10:10.511Z,13.70
2019-05-21T09:13:17.744Z,13.60
2019-05-21T09:19:30.240Z,13.60
2019-05-21T09:31:13.763Z,13.50
2019-05-21T09:34:47.931Z,13.50
2019-05-21T09:37:37.787Z,13.50
2019-05-21T09:40:25.442Z,13.60
2019-05-21T09:46:15.708Z,13.70
2019-05-21T09:49:11.154Z,13.70
2019-05-21T09:52:20.861Z,13.80
2019-05-21T09:55:14.092Z,13.90
2019-05-21T09:58:48.601Z,13.90
2019-05-21T10:02:28.930Z,14.00
2019-05-21T10:07:39.959Z,14.00
2019-05-21T10:10:41.873Z,14.10
2019-05-21T10:19:51.922Z,14.20
2019-05-21T10:22:40.802Z,14.20
2019-05-21T10:26:43.112Z,14.20
2019-05-21T10:28:34.288Z,14.30
2019-05-21T10:31:14.887Z,14.30
2019-05-21T10:33:53.179Z,14.30
2019-05-21T10:36:33.017Z,14.30
2019-05-21T10:39:06.762Z,14.40
2019-05-21T10:44:48.322Z,14.40
2019-05-21T10:47:32.127Z,14.40
2019-05-21T10:50:12.603Z,14.40
2019-05-21T10:52:59.544Z,14.40
2019-05-21T10:55:42.645Z,14.40
2019-05-21T10:58:34.996Z,14.40
2019-05-21T11:01:24.068Z,14.40
2019-05-21T11:04:20.964Z,14.50
2019-05-21T11:07:05.524Z,14.50
2019-05-21T11:09:40.156Z,14.40
2019-05-21T11:12:22.003Z,14.40
2019-05-21T11:15:00.851Z,14.40
2019-05-21T11:17:53.620Z,14.40
2019-05-21T11:20:25.526Z,14.40
2019-05-21T11:23:01.818Z,14.40
2019-05-21T11:25:40.972Z,14.40
2019-05-21T11:28:16.979Z,14.40
2019-05-21T11:34:04.157Z,14.40
2019-05-21T11:36:40.635Z,14.40
2019-05-21T11:39:17.785Z,14.40
2019-05-21T11:41:56.796Z,14.40
2019-05-21T11:44:34.805Z,14.40
2019-05-21T11:47:07.990Z,14.30
2019-05-21T11:49:47.873Z,14.30
2019-05-21T11:52:20.519Z,14.30
2019-05-21T11:54:55.899Z,14.30
2019-05-21T11:57:29.241Z,14.30
2019-05-21T12:00:02.214Z,14.30
2019-05-21T12:02:35.216Z,14.30
2019-05-21T12:05:10.150Z,14.20
2019-05-21T12:07:58.153Z,14.20
2019-05-21T12:10:24.209Z,14.20
2019-05-21T12:12:57.059Z,14.20
2019-05-21T12:15:32.756Z,14.20
2019-05-21T12:18:05.788Z,14.20
2019-05-21T12:20:38.895Z,14.20
2019-05-21T12:23:11.996Z,14.20
2019-05-21T12:25:44.977Z,14.20
2019-05-21T12:28:17.813Z,14.20
2019-05-21T12:30:50.631Z,14.20
2019-05-21T12:33:23.819Z,14.20
2019-05-21T12:35:56.705Z,14.10
2019-05-21T12:38:30.884Z,14.10
2019-05-21T12:41:03.828Z,14.10
2019-05-21T12:43:36.935Z,14.10
2019-05-21T12:46:09.776Z,14.10
2019-05-21T12:48:42.892Z,14.00
2019-05-21T12:51:15.824Z,14.00
2019-05-21T12:53:48.807Z,14.00
2019-05-21T12:56:21.619Z,14.00
2019-05-21T12:58:54.866Z,14.00
2019-05-21T13:01:27.705Z,14.00
2019-05-21T13:04:02.753Z,14.00
2019-05-21T13:06:36.092Z,14.10
2019-05-21T13:09:10.854Z,14.10
2019-05-21T13:11:45.324Z,14.10
2019-05-21T13:14:20.560Z,14.10
2019-05-21T13:16:54.846Z,14.10
2019-05-21T13:19:29.133Z,14.10
2019-05-21T13:22:02.893Z,14.10
2019-05-21T13:24:39.865Z,14.10
2019-05-21T13:27:19.753Z,14.10
2019-05-21T13:29:52.564Z,14.10
2019-05-21T13:32:26.072Z,14.10
2019-05-21T13:34:58.916Z,14.00
2019-05-21T13:37:31.973Z,14.10
2019-05-21T13:40:08.266Z,14.10
2019-05-21T13:42:46.157Z,14.10
2019-05-21T13:45:25.871Z,14.10
2019-05-21T13:48:05.095Z,14.10
2019-05-21T13:50:33.125Z,14.10
2019-05-21T13:53:06.157Z,14.10
2019-05-21T13:58:40.640Z,14.10
2019-05-21T14:01:39.343Z,14.10
2019-05-21T14:04:04.527Z,14.10
2019-05-21T14:06:46.122Z,14.10
2019-05-21T14:09:33.343Z,14.10
2019-05-21T14:12:23.667Z,14.10
2019-05-21T14:14:52.387Z,14.10
2019-05-21T14:17:41.278Z,14.10
2019-05-21T14:20:22.118Z,14.10
2019-05-21T14:23:07.115Z,14.20
2019-05-21T14:25:49.543Z,14.20
2019-05-21T14:28:38.398Z,14.20
2019-05-21T14:31:12.088Z,14.20
2019-05-21T14:33:50.592Z,14.20
2019-05-21T14:36:30.874Z,14.20
2019-05-21T14:39:16.472Z,14.20
2019-05-21T14:42:02.187Z,14.10
2019-05-21T14:44:38.879Z,14.10
2019-05-21T14:47:27.819Z,14.10
2019-05-21T14:53:07.379Z,14.10
2019-05-21T14:55:43.669Z,14.10
2019-05-21T14:58:30.346Z,14.20
2019-05-21T15:01:03.581Z,14.10
2019-05-21T15:03:45.664Z,14.10
2019-05-21T15:06:21.857Z,14.10
2019-05-21T15:08:59.936Z,14.10
2019-05-21T15:11:38.748Z,14.10
2019-05-21T15:14:14.689Z,14.10
2019-05-21T15:16:55.962Z,14.10
2019-05-21T15:19:32.749Z,14.10
2019-05-21T15:22:12.083Z,14.10
2019-05-21T15:24:51.624Z,14.10
2019-05-21T15:27:35.057Z,14.00
2019-05-21T15:30:20.034Z,14.00
2019-05-21T15:33:01.283Z,14.00
2019-05-21T15:35:40.763Z,14.00
2019-05-21T15:38:19.244Z,14.00
2019-05-21T15:41:09.582Z,14.00
2019-05-21T15:43:33.263Z,14.00
2019-05-21T15:46:13.496Z,14.10
2019-05-21T15:49:00.093Z,14.10
2019-05-21T15:51:33.375Z,14.10
2019-05-21T15:54:07.674Z,14.10
2019-05-21T15:56:41.885Z,14.10
2019-05-21T15:59:16.323Z,14.10
2019-05-21T16:01:55.154Z,14.20
2019-05-21T16:04:28.505Z,14.20
2019-05-21T16:07:01.847Z,14.20
2019-05-21T16:09:34.754Z,14.20
2019-05-21T16:12:08.790Z,14.20
2019-05-21T16:14:44.556Z,14.20
2019-05-21T16:17:15.674Z,14.20
2019-05-21T16:19:48.595Z,14.20
2019-05-21T16:22:21.588Z,14.20
2019-05-21T16:24:55.991Z,14.20
2019-05-21T16:27:30.058Z,14.20
2019-05-21T16:30:03.010Z,14.20
2019-05-21T16:32:35.765Z,14.30
2019-05-21T16:35:10.093Z,14.30
2019-05-21T16:37:45.230Z,14.30
2019-05-21T16:40:19.206Z,14.30
2019-05-21T16:42:55.310Z,14.30
2019-05-21T16:45:31.180Z,14.30
2019-05-21T16:48:03.408Z,14.30
2019-05-21T16:50:36.585Z,14.30
2019-05-21T16:53:09.412Z,14.30
2019-05-21T16:55:42.854Z,14.30
2019-05-21T16:58:18.862Z,14.30
2019-05-21T17:00:54.737Z,14.30
2019-05-21T17:03:30.796Z,14.30
2019-05-21T17:06:04.149Z,14.30
2019-05-21T17:08:41.788Z,14.30
2019-05-21T17:11:20.878Z,14.30
2019-05-21T17:13:54.180Z,14.30
2019-05-21T17:16:27.895Z,14.30
2019-05-21T17:19:04.251Z,14.30
2019-05-21T17:21:41.960Z,14.30
2019-05-21T17:24:17.201Z,14.30
2019-05-21T17:26:51.649Z,14.30
2019-05-21T17:29:24.597Z,14.30
2019-05-21T17:31:57.569Z,14.30
2019-05-21T17:34:31.910Z,14.30
2019-05-21T17:37:06.118Z,14.30
2019-05-21T17:39:42.297Z,14.30
2019-05-21T17:42:16.024Z,14.30
2019-05-21T17:44:50.396Z,14.30
2019-05-21T17:47:32.574Z,14.30
2019-05-21T17:49:57.743Z,14.30
2019-05-21T17:52:30.781Z,14.30
2019-05-21T17:55:03.762Z,14.30
2019-05-21T17:57:37.715Z,14.30
2019-05-21T18:00:13.185Z,14.30
2019-05-21T18:02:45.970Z,14.30
2019-05-21T18:05:27.212Z,14.30
2019-05-21T18:08:06.719Z,14.30
2019-05-21T18:10:39.867Z,14.30
2019-05-21T18:13:23.767Z,14.30
2019-05-21T18:16:02.607Z,14.30
2019-05-21T18:18:37.262Z,14.30
2019-05-21T18:21:10.268Z,14.20
2019-05-21T18:23:45.440Z,14.20
2019-05-21T18:26:23.379Z,14.20
2019-05-21T18:28:57.908Z,14.20
2019-05-21T18:31:34.470Z,14.20
2019-05-21T18:34:08.663Z,14.20
2019-05-21T18:36:42.166Z,14.20
2019-05-21T18:39:17.714Z,14.20
2019-05-21T18:41:50.272Z,14.20
2019-05-21T18:44:23.269Z,14.20
2019-05-21T18:46:56.632Z,14.20
2019-05-21T18:49:29.311Z,14.20
2019-05-21T18:52:02.800Z,14.20
2019-05-21T18:54:35.365Z,14.20
2019-05-21T18:57:07.832Z,14.20
2019-05-21T18:59:40.669Z,14.20
2019-05-21T19:02:38.381Z,14.20
2019-05-21T19:05:11.291Z,14.20
2019-05-21T19:07:44.013Z,14.20
2019-05-21T19:16:48.094Z,14.20
2019-05-21T19:23:34.672Z,14.20
2019-05-21T19:26:58.391Z,14.20
2019-05-21T19:29:31.750Z,14.20
2019-05-21T19:53:13.419Z,14.40
2019-05-21T20:00:29.479Z,14.50
2019-05-21T20:02:53.782Z,14.50
2019-05-21T20:05:40.647Z,14.60
2019-05-21T20:08:19.378Z,14.60
2019-05-21T20:10:53.221Z,14.70
2019-05-21T20:13:32.850Z,14.80
2019-05-21T20:16:28.708Z,14.80
2019-05-21T20:19:06.337Z,14.90
2019-05-21T20:21:48.543Z,15.00
2019-05-21T20:24:22.611Z,15.10
2019-05-21T20:26:58.460Z,15.10
2019-05-21T20:29:40.817Z,15.20
2019-05-21T20:32:16.872Z,15.30
2019-05-21T20:42:04.903Z,15.50
2019-05-21T20:44:43.577Z,15.60
2019-05-21T20:47:20.819Z,15.70
2019-05-21T20:53:20.781Z,15.90
2019-05-21T20:55:56.531Z,16.10
2019-05-21T20:58:56.198Z,16.10
2019-05-21T21:01:12.931Z,16.10
2019-05-21T21:03:57.678Z,16.20
2019-05-21T21:06:37.695Z,16.30
2019-05-21T21:09:14.630Z,16.30
2019-05-21T21:15:01.904Z,16.70
2019-05-21T21:17:51.803Z,16.80
2019-05-21T21:20:43.951Z,17.00
2019-05-21T21:23:22.324Z,17.10
2019-05-21T21:26:18.061Z,17.30
2019-05-21T21:29:11.899Z,17.40
2019-05-21T21:31:55.587Z,17.50
2019-05-21T21:34:42.427Z,17.50
2019-05-21T21:37:17.279Z,17.60
2019-05-21T21:42:47.672Z,17.70
2019-05-21T21:45:26.827Z,17.80
2019-05-21T21:48:22.538Z,18.00
2019-05-21T21:51:07.049Z,18.00
2019-05-21T21:54:26.922Z,17.90
2019-05-21T22:06:13.389Z,18.30
2019-05-21T22:08:58.199Z,18.40
2019-05-21T22:12:44.895Z,18.50
2019-05-21T22:17:51.489Z,19.10
2019-05-21T22:20:39.666Z,19.80
2019-05-21T22:22:58.751Z,20.30
2019-05-21T22:26:00.926Z,20.30
2019-05-21T22:37:44.508Z,20.00
2019-05-21T22:47:01.360Z,19.60
2019-05-21T22:52:23.377Z,19.30
2019-05-21T22:58:39.463Z,18.80
2019-05-21T23:01:25.076Z,18.60
2019-05-21T23:04:08.284Z,18.40
2019-05-21T23:15:54.239Z,18.40
2019-05-21T23:18:50.948Z,18.40
2019-05-21T23:21:53.574Z,18.50
2019-05-21T23:24:25.712Z,18.60
2019-05-21T23:27:02.153Z,18.70
2019-05-21T23:29:57.014Z,18.80
2019-05-21T23:32:41.020Z,18.90
2019-05-21T23:35:38.301Z,19.10
2019-05-21T23:38:33.090Z,19.20
2019-05-21T23:44:30.924Z,19.60
2019-05-21T23:50:52.298Z,19.50
2019-05-21T23:54:56.321Z,19.70
